sensor_id;sensor_type;location;lat;lon;timestamp;pressure;altitude;pressure_sealevel;temperature;humidity
57859;BME280;49153;45.568;11.894;2022-10-16T00:01:12;101795.59;;;18.12;82.41
57859;BME280;49153;45.568;11.894;2022-10-16T00:03:40;101803.94;;;18.19;82.16
57859;BME280;49153;45.568;11.894;2022-10-16T00:06:07;101798.59;;;18.19;82.26
57859;BME280;49153;45.568;11.894;2022-10-16T00:08:34;101805.75;;;18.18;82.27
57859;BME280;49153;45.568;11.894;2022-10-16T00:11:09;101803.19;;;18.17;82.32
57859;BME280;49153;45.568;11.894;2022-10-16T00:13:36;101802.22;;;18.18;82.31
57859;BME280;49153;45.568;11.894;2022-10-16T00:16:02;101796.03;;;18.17;82.23
57859;BME280;49153;45.568;11.894;2022-10-16T00:18:29;101800.66;;;18.15;82.20
57859;BME280;49153;45.568;11.894;2022-10-16T00:20:56;101798.97;;;18.14;82.30
57859;BME280;49153;45.568;11.894;2022-10-16T00:23:26;101793.31;;;18.07;82.22
57859;BME280;49153;45.568;11.894;2022-10-16T00:26:06;101802.31;;;18.06;82.58
57859;BME280;49153;45.568;11.894;2022-10-16T00:28:31;101793.84;;;18.01;82.57
57859;BME280;49153;45.568;11.894;2022-10-16T00:30:57;101809.19;;;18.09;82.90
57859;BME280;49153;45.568;11.894;2022-10-16T00:33:24;101803.72;;;18.10;82.76
57859;BME280;49153;45.568;11.894;2022-10-16T00:35:50;101799.50;;;18.08;82.84
57859;BME280;49153;45.568;11.894;2022-10-16T00:38:16;101804.84;;;18.08;82.78
57859;BME280;49153;45.568;11.894;2022-10-16T00:40:41;101797.81;;;18.07;82.81
57859;BME280;49153;45.568;11.894;2022-10-16T00:43:43;101799.63;;;18.06;82.90
57859;BME280;49153;45.568;11.894;2022-10-16T00:46:15;101800.59;;;18.05;82.97
57859;BME280;49153;45.568;11.894;2022-10-16T00:48:44;101809.59;;;18.04;82.88
57859;BME280;49153;45.568;11.894;2022-10-16T00:51:11;101800.16;;;18.00;83.00
57859;BME280;49153;45.568;11.894;2022-10-16T00:53:36;101811.56;;;18.02;83.06
57859;BME280;49153;45.568;11.894;2022-10-16T00:56:02;101806.47;;;17.99;83.09
57859;BME280;49153;45.568;11.894;2022-10-16T00:58:28;101804.19;;;17.95;83.14
57859;BME280;49153;45.568;11.894;2022-10-16T01:00:53;101816.56;;;17.96;83.32
57859;BME280;49153;45.568;11.894;2022-10-16T01:03:31;101794.63;;;17.92;83.19
57859;BME280;49153;45.568;11.894;2022-10-16T01:06:21;101811.09;;;17.97;83.06
57859;BME280;49153;45.568;11.894;2022-10-16T01:09:17;101812.31;;;17.93;83.08
57859;BME280;49153;45.568;11.894;2022-10-16T01:14:42;101803.41;;;17.83;83.68
57859;BME280;49153;45.568;11.894;2022-10-16T01:17:18;101795.28;;;17.85;83.63
57859;BME280;49153;45.568;11.894;2022-10-16T01:25:30;101802.94;;;17.78;84.00
57859;BME280;49153;45.568;11.894;2022-10-16T01:27:59;101800.66;;;17.73;84.09
57859;BME280;49153;45.568;11.894;2022-10-16T01:30:28;101809.88;;;17.81;84.31
57859;BME280;49153;45.568;11.894;2022-10-16T01:33:10;101804.38;;;17.82;84.29
57859;BME280;49153;45.568;11.894;2022-10-16T01:35:40;101804.13;;;17.85;84.38
57859;BME280;49153;45.568;11.894;2022-10-16T01:38:13;101807.78;;;17.84;84.42
57859;BME280;49153;45.568;11.894;2022-10-16T01:40:45;101805.84;;;17.86;84.24
57859;BME280;49153;45.568;11.894;2022-10-16T01:43:15;101803.56;;;17.82;84.16
57859;BME280;49153;45.568;11.894;2022-10-16T01:45:44;101801.47;;;17.85;84.26
57859;BME280;49153;45.568;11.894;2022-10-16T01:48:14;101807.78;;;17.84;84.25
57859;BME280;49153;45.568;11.894;2022-10-16T01:50:43;101798.22;;;17.82;84.32
57859;BME280;49153;45.568;11.894;2022-10-16T01:53:12;101807.03;;;17.82;84.23
57859;BME280;49153;45.568;11.894;2022-10-16T01:55:42;101811.41;;;17.83;84.32
57859;BME280;49153;45.568;11.894;2022-10-16T01:58:13;101810.84;;;17.80;84.20
57859;BME280;49153;45.568;11.894;2022-10-16T02:00:42;101822.59;;;17.77;84.19
57859;BME280;49153;45.568;11.894;2022-10-16T02:03:11;101822.13;;;17.72;84.34
57859;BME280;49153;45.568;11.894;2022-10-16T02:05:42;101822.28;;;17.70;84.32
57859;BME280;49153;45.568;11.894;2022-10-16T02:08:11;101833.28;;;17.77;84.54
57859;BME280;49153;45.568;11.894;2022-10-16T02:10:38;101832.44;;;17.77;84.52
57859;BME280;49153;45.568;11.894;2022-10-16T02:13:06;101838.63;;;17.77;84.33
57859;BME280;49153;45.568;11.894;2022-10-16T02:15:34;101834.50;;;17.73;84.35
57859;BME280;49153;45.568;11.894;2022-10-16T02:17:59;101835.47;;;17.72;84.42
57859;BME280;49153;45.568;11.894;2022-10-16T02:20:28;101834.91;;;17.68;84.42
57859;BME280;49153;45.568;11.894;2022-10-16T02:22:58;101830.53;;;17.67;84.72
57859;BME280;49153;45.568;11.894;2022-10-16T02:25:37;101839.28;;;17.69;84.89
57859;BME280;49153;45.568;11.894;2022-10-16T02:28:09;101843.66;;;17.70;84.74
57859;BME280;49153;45.568;11.894;2022-10-16T02:30:45;101841.94;;;17.69;84.72
57859;BME280;49153;45.568;11.894;2022-10-16T02:33:13;101837.69;;;17.67;84.67
57859;BME280;49153;45.568;11.894;2022-10-16T02:35:43;101844.34;;;17.72;84.87
57859;BME280;49153;45.568;11.894;2022-10-16T02:38:11;101847.63;;;17.76;84.73
57859;BME280;49153;45.568;11.894;2022-10-16T02:40:37;101840.38;;;17.67;84.75
57859;BME280;49153;45.568;11.894;2022-10-16T02:43:04;101850.81;;;17.70;84.82
57859;BME280;49153;45.568;11.894;2022-10-16T02:45:30;101854.31;;;17.70;84.87
57859;BME280;49153;45.568;11.894;2022-10-16T02:47:55;101850.06;;;17.68;84.98
57859;BME280;49153;45.568;11.894;2022-10-16T02:50:22;101857.84;;;17.71;85.09
57859;BME280;49153;45.568;11.894;2022-10-16T02:52:48;101852.63;;;17.69;84.85
57859;BME280;49153;45.568;11.894;2022-10-16T02:55:13;101852.00;;;17.66;84.87
57859;BME280;49153;45.568;11.894;2022-10-16T02:57:39;101858.47;;;17.63;85.04
57859;BME280;49153;45.568;11.894;2022-10-16T03:00:09;101862.56;;;17.67;85.21
57859;BME280;49153;45.568;11.894;2022-10-16T03:02:34;101862.69;;;17.66;85.38
57859;BME280;49153;45.568;11.894;2022-10-16T03:05:00;101853.13;;;17.63;85.38
57859;BME280;49153;45.568;11.894;2022-10-16T03:07:25;101858.56;;;17.62;85.34
57859;BME280;49153;45.568;11.894;2022-10-16T03:09:51;101856.75;;;17.62;85.33
57859;BME280;49153;45.568;11.894;2022-10-16T03:12:16;101863.91;;;17.62;84.98
57859;BME280;49153;45.568;11.894;2022-10-16T03:14:41;101863.22;;;17.60;85.00
57859;BME280;49153;45.568;11.894;2022-10-16T03:17:07;101858.34;;;17.54;85.24
57859;BME280;49153;45.568;11.894;2022-10-16T03:19:32;101857.38;;;17.55;85.41
57859;BME280;49153;45.568;11.894;2022-10-16T03:21:58;101859.78;;;17.58;85.62
57859;BME280;49153;45.568;11.894;2022-10-16T03:24:23;101844.28;;;17.52;85.73
57859;BME280;49153;45.568;11.894;2022-10-16T03:26:48;101861.25;;;17.62;85.47
57859;BME280;49153;45.568;11.894;2022-10-16T03:29:14;101855.28;;;17.58;85.52
57859;BME280;49153;45.568;11.894;2022-10-16T03:31:40;101855.91;;;17.62;85.76
57859;BME280;49153;45.568;11.894;2022-10-16T03:34:05;101850.81;;;17.59;85.76
57859;BME280;49153;45.568;11.894;2022-10-16T03:36:31;101858.47;;;17.63;85.57
57859;BME280;49153;45.568;11.894;2022-10-16T03:38:56;101853.25;;;17.62;85.73
57859;BME280;49153;45.568;11.894;2022-10-16T03:41:22;101858.56;;;17.62;85.59
57859;BME280;49153;45.568;11.894;2022-10-16T03:43:47;101858.09;;;17.57;85.44
57859;BME280;49153;45.568;11.894;2022-10-16T03:46:13;101854.81;;;17.53;85.52
57859;BME280;49153;45.568;11.894;2022-10-16T03:48:38;101852.53;;;17.49;85.50
57859;BME280;49153;45.568;11.894;2022-10-16T03:51:05;101853.78;;;17.45;85.45
57859;BME280;49153;45.568;11.894;2022-10-16T03:53:30;101859.63;;;17.39;85.50
57859;BME280;49153;45.568;11.894;2022-10-16T03:55:56;101862.50;;;17.36;85.52
57859;BME280;49153;45.568;11.894;2022-10-16T03:58:21;101860.22;;;17.31;85.68
57859;BME280;49153;45.568;11.894;2022-10-16T04:00:47;101857.19;;;17.24;85.46
57859;BME280;49153;45.568;11.894;2022-10-16T04:03:13;101861.94;;;17.21;85.69
57859;BME280;49153;45.568;11.894;2022-10-16T04:05:39;101854.06;;;17.08;85.87
57859;BME280;49153;45.568;11.894;2022-10-16T04:08:04;101863.19;;;17.06;85.52
57859;BME280;49153;45.568;11.894;2022-10-16T04:10:30;101863.78;;;16.98;85.88
57859;BME280;49153;45.568;11.894;2022-10-16T04:12:55;101868.41;;;16.96;85.97
57859;BME280;49153;45.568;11.894;2022-10-16T04:15:24;101868.63;;;16.93;85.98
57859;BME280;49153;45.568;11.894;2022-10-16T04:17:50;101873.50;;;16.88;86.04
57859;BME280;49153;45.568;11.894;2022-10-16T04:20:17;101865.38;;;16.78;86.01
57859;BME280;49153;45.568;11.894;2022-10-16T04:22:42;101876.41;;;16.74;86.13
57859;BME280;49153;45.568;11.894;2022-10-16T04:25:09;101877.38;;;16.73;86.27
57859;BME280;49153;45.568;11.894;2022-10-16T04:27:36;101881.25;;;16.69;86.08
57859;BME280;49153;45.568;11.894;2022-10-16T04:30:03;101888.66;;;16.65;85.91
57859;BME280;49153;45.568;11.894;2022-10-16T04:32:29;101876.25;;;16.53;86.11
57859;BME280;49153;45.568;11.894;2022-10-16T04:34:55;101890.94;;;16.59;86.20
57859;BME280;49153;45.568;11.894;2022-10-16T04:37:26;101890.94;;;16.59;86.26
57859;BME280;49153;45.568;11.894;2022-10-16T04:39:53;101892.94;;;16.55;85.90
57859;BME280;49153;45.568;11.894;2022-10-16T04:42:19;101894.03;;;16.53;86.33
57859;BME280;49153;45.568;11.894;2022-10-16T04:44:44;101886.41;;;16.48;85.99
57859;BME280;49153;45.568;11.894;2022-10-16T04:47:09;101892.59;;;16.48;85.85
57859;BME280;49153;45.568;11.894;2022-10-16T04:49:35;101891.34;;;16.41;85.60
57859;BME280;49153;45.568;11.894;2022-10-16T04:52:00;101892.47;;;16.39;85.72
57859;BME280;49153;45.568;11.894;2022-10-16T04:54:26;101894.72;;;16.32;85.62
57859;BME280;49153;45.568;11.894;2022-10-16T04:56:51;101894.09;;;16.29;85.64
57859;BME280;49153;45.568;11.894;2022-10-16T04:59:18;101904.88;;;16.27;85.91
57859;BME280;49153;45.568;11.894;2022-10-16T05:01:45;101899.06;;;16.22;85.81
57859;BME280;49153;45.568;11.894;2022-10-16T05:04:11;101908.50;;;16.26;85.81
57859;BME280;49153;45.568;11.894;2022-10-16T05:06:37;101911.19;;;16.26;86.00
57859;BME280;49153;45.568;11.894;2022-10-16T05:09:04;101907.16;;;16.21;85.77
57859;BME280;49153;45.568;11.894;2022-10-16T05:11:30;101898.69;;;16.16;85.64
57859;BME280;49153;45.568;11.894;2022-10-16T05:13:55;101901.44;;;16.14;85.60
57859;BME280;49153;45.568;11.894;2022-10-16T05:16:21;101909.44;;;16.14;85.52
57859;BME280;49153;45.568;11.894;2022-10-16T05:18:46;101909.44;;;16.14;85.55
57859;BME280;49153;45.568;11.894;2022-10-16T05:21:11;101917.41;;;16.14;85.60
57859;BME280;49153;45.568;11.894;2022-10-16T05:23:37;101917.41;;;16.14;85.17
57859;BME280;49153;45.568;11.894;2022-10-16T05:26:03;101910.63;;;16.10;85.27
57859;BME280;49153;45.568;11.894;2022-10-16T05:28:29;101919.59;;;16.09;85.42
57859;BME280;49153;45.568;11.894;2022-10-16T05:30:56;101919.81;;;16.06;85.62
57859;BME280;49153;45.568;11.894;2022-10-16T05:33:23;101916.41;;;16.04;85.54
57859;BME280;49153;45.568;11.894;2022-10-16T05:35:49;101917.50;;;16.01;85.50
57859;BME280;49153;45.568;11.894;2022-10-16T05:38:15;101926.56;;;15.99;85.59
57859;BME280;49153;45.568;11.894;2022-10-16T05:40:40;101927.53;;;15.98;85.82
57859;BME280;49153;45.568;11.894;2022-10-16T05:43:06;101931.88;;;15.99;85.86
57859;BME280;49153;45.568;11.894;2022-10-16T05:45:31;101932.84;;;15.98;86.06
57859;BME280;49153;45.568;11.894;2022-10-16T05:47:57;101946.91;;;16.00;85.81
57859;BME280;49153;45.568;11.894;2022-10-16T05:50:22;101936.25;;;16.00;85.81
57859;BME280;49153;45.568;11.894;2022-10-16T05:52:47;101938.81;;;16.01;85.72
57859;BME280;49153;45.568;11.894;2022-10-16T05:55:13;101941.78;;;15.97;85.58
57859;BME280;49153;45.568;11.894;2022-10-16T05:57:38;101951.13;;;16.02;85.25
57859;BME280;49153;45.568;11.894;2022-10-16T06:00:05;101953.06;;;16.00;85.20
57859;BME280;49153;45.568;11.894;2022-10-16T06:02:30;101954.38;;;15.95;85.35
57859;BME280;49153;45.568;11.894;2022-10-16T06:04:56;101963.09;;;15.97;85.34
57859;BME280;49153;45.568;11.894;2022-10-16T06:07:22;101964.78;;;15.98;85.41
57859;BME280;49153;45.568;11.894;2022-10-16T06:09:51;101968.28;;;15.98;85.65
57859;BME280;49153;45.568;11.894;2022-10-16T06:12:17;101960.97;;;16.02;85.94
57859;BME280;49153;45.568;11.894;2022-10-16T06:14:43;101964.84;;;16.09;85.95
57859;BME280;49153;45.568;11.894;2022-10-16T06:17:08;101967.28;;;16.12;85.61
57859;BME280;49153;45.568;11.894;2022-10-16T06:19:33;101973.31;;;16.14;85.67
57859;BME280;49153;45.568;11.894;2022-10-16T06:21:59;101956.84;;;16.09;85.31
57859;BME280;49153;45.568;11.894;2022-10-16T06:24:25;101980.34;;;16.15;85.48
57859;BME280;49153;45.568;11.894;2022-10-16T06:26:50;101977.09;;;16.12;85.80
57859;BME280;49153;45.568;11.894;2022-10-16T06:29:16;101981.31;;;16.14;85.68
57859;BME280;49153;45.568;11.894;2022-10-16T06:31:41;101989.41;;;16.13;85.62
57859;BME280;49153;45.568;11.894;2022-10-16T06:34:09;101996.22;;;16.17;85.94
57859;BME280;49153;45.568;11.894;2022-10-16T06:36:36;101990.91;;;16.17;85.73
57859;BME280;49153;45.568;11.894;2022-10-16T06:39:01;101995.78;;;16.23;85.92
57859;BME280;49153;45.568;11.894;2022-10-16T06:41:27;102005.13;;;16.28;85.82
57859;BME280;49153;45.568;11.894;2022-10-16T06:43:52;102006.69;;;16.31;85.73
57859;BME280;49153;45.568;11.894;2022-10-16T06:46:21;102011.66;;;16.35;85.86
57859;BME280;49153;45.568;11.894;2022-10-16T06:48:46;102015.69;;;16.41;85.83
57859;BME280;49153;45.568;11.894;2022-10-16T06:51:14;102013.78;;;16.43;85.64
57859;BME280;49153;45.568;11.894;2022-10-16T06:53:43;102026.63;;;16.49;85.54
57859;BME280;49153;45.568;11.894;2022-10-16T06:58:45;102031.09;;;16.48;85.53
57859;BME280;49153;45.568;11.894;2022-10-16T07:01:11;102035.47;;;16.50;85.48
57859;BME280;49153;45.568;11.894;2022-10-16T07:03:38;102031.22;;;16.47;85.38
57859;BME280;49153;45.568;11.894;2022-10-16T07:06:05;102038.84;;;16.52;85.58
57859;BME280;49153;45.568;11.894;2022-10-16T07:08:33;102048.13;;;16.59;85.56
57859;BME280;49153;45.568;11.894;2022-10-16T07:11:08;102043.50;;;16.61;85.29
57859;BME280;49153;45.568;11.894;2022-10-16T07:13:39;102046.91;;;16.63;85.42
57859;BME280;49153;45.568;11.894;2022-10-16T07:16:05;102050.19;;;16.66;85.30
57859;BME280;49153;45.568;11.894;2022-10-16T07:18:32;102046.47;;;16.69;85.55
57859;BME280;49153;45.568;11.894;2022-10-16T07:21:11;102054.34;;;16.81;85.38
57859;BME280;49153;45.568;11.894;2022-10-16T07:23:37;102061.19;;;16.85;85.16
57859;BME280;49153;45.568;11.894;2022-10-16T07:26:04;102059.13;;;16.89;85.41
57859;BME280;49153;45.568;11.894;2022-10-16T07:28:30;102053.78;;;16.89;85.16
57859;BME280;49153;45.568;11.894;2022-10-16T07:31:03;102067.13;;;17.00;85.04
57859;BME280;49153;45.568;11.894;2022-10-16T07:33:30;102065.94;;;17.04;85.15
57859;BME280;49153;45.568;11.894;2022-10-16T07:35:55;102071.66;;;17.11;85.31
57859;BME280;49153;45.568;11.894;2022-10-16T07:38:21;102079.78;;;17.20;85.13
57859;BME280;49153;45.568;11.894;2022-10-16T07:40:48;102080.16;;;17.27;85.12
57859;BME280;49153;45.568;11.894;2022-10-16T07:43:14;102084.88;;;17.35;84.79
57859;BME280;49153;45.568;11.894;2022-10-16T07:45:57;102081.50;;;17.44;84.74
57859;BME280;49153;45.568;11.894;2022-10-16T07:48:26;102088.56;;;17.45;84.47
57859;BME280;49153;45.568;11.894;2022-10-16T07:50:52;102089.75;;;17.52;84.65
57859;BME280;49153;45.568;11.894;2022-10-16T07:53:17;102098.97;;;17.59;84.32
57859;BME280;49153;45.568;11.894;2022-10-16T07:55:43;102096.09;;;17.62;84.47
57859;BME280;49153;45.568;11.894;2022-10-16T07:58:08;102091.00;;;17.70;84.25
57859;BME280;49153;45.568;11.894;2022-10-16T08:00:36;102102.16;;;17.75;84.04
57859;BME280;49153;45.568;11.894;2022-10-16T08:03:01;102094.66;;;17.80;83.84
57859;BME280;49153;45.568;11.894;2022-10-16T08:05:29;102095.13;;;17.85;83.70
57859;BME280;49153;45.568;11.894;2022-10-16T08:07:56;102087.47;;;17.92;83.99
57859;BME280;49153;45.568;11.894;2022-10-16T08:10:24;102098.72;;;18.06;83.81
57859;BME280;49153;45.568;11.894;2022-10-16T08:12:50;102099.81;;;18.15;83.37
57859;BME280;49153;45.568;11.894;2022-10-16T08:15:16;102101.59;;;18.26;83.36
57859;BME280;49153;45.568;11.894;2022-10-16T08:17:42;102096.81;;;18.40;83.43
57859;BME280;49153;45.568;11.894;2022-10-16T08:20:08;102102.00;;;18.53;83.40
57859;BME280;49153;45.568;11.894;2022-10-16T08:22:34;102089.25;;;18.56;83.33
57859;BME280;49153;45.568;11.894;2022-10-16T08:24:59;102107.19;;;18.77;82.63
57859;BME280;49153;45.568;11.894;2022-10-16T08:27:25;102103.34;;;18.90;82.70
57859;BME280;49153;45.568;11.894;2022-10-16T08:29:50;102103.72;;;19.07;81.98
57859;BME280;49153;45.568;11.894;2022-10-16T08:32:15;102098.97;;;19.10;81.86
57859;BME280;49153;45.568;11.894;2022-10-16T08:34:41;102094.47;;;19.11;81.59
57859;BME280;49153;45.568;11.894;2022-10-16T08:37:06;102104.00;;;19.24;81.48
57859;BME280;49153;45.568;11.894;2022-10-16T08:39:33;102114.47;;;19.37;81.23
57859;BME280;49153;45.568;11.894;2022-10-16T08:42:14;102109.00;;;19.38;80.75
57859;BME280;49153;45.568;11.894;2022-10-16T08:48:08;102123.03;;;19.52;80.27
57859;BME280;49153;45.568;11.894;2022-10-16T08:50:37;102140.41;;;19.57;79.91
57859;BME280;49153;45.568;11.894;2022-10-16T08:53:05;102121.81;;;19.56;79.33
57859;BME280;49153;45.568;11.894;2022-10-16T08:55:41;102133.53;;;19.64;79.82
57859;BME280;49153;45.568;11.894;2022-10-16T08:58:19;102134.44;;;19.74;79.86
57859;BME280;49153;45.568;11.894;2022-10-16T09:00:51;102128.97;;;19.86;79.43
57859;BME280;49153;45.568;11.894;2022-10-16T09:11:52;102131.13;;;20.32;78.09
57859;BME280;49153;45.568;11.894;2022-10-16T09:17:04;102125.50;;;20.44;77.22
57859;BME280;49153;45.568;11.894;2022-10-16T09:19:51;102126.66;;;20.51;76.84
57859;BME280;49153;45.568;11.894;2022-10-16T09:22:21;102127.75;;;20.58;77.79
57859;BME280;49153;45.568;11.894;2022-10-16T09:24:48;102133.41;;;20.75;76.74
57859;BME280;49153;45.568;11.894;2022-10-16T09:27:14;102139.78;;;20.74;75.97
57859;BME280;49153;45.568;11.894;2022-10-16T09:29:40;102140.63;;;20.74;76.79
57859;BME280;49153;45.568;11.894;2022-10-16T09:32:17;102132.00;;;20.80;76.08
57859;BME280;49153;45.568;11.894;2022-10-16T09:35:01;102131.16;;;20.89;76.04
57859;BME280;49153;45.568;11.894;2022-10-16T09:37:27;102124.78;;;21.00;76.16
57859;BME280;49153;45.568;11.894;2022-10-16T09:39:54;102134.13;;;21.15;75.38
57859;BME280;49153;45.568;11.894;2022-10-16T09:42:22;102129.75;;;21.24;75.23
57859;BME280;49153;45.568;11.894;2022-10-16T09:44:51;102133.69;;;21.29;74.17
57859;BME280;49153;45.568;11.894;2022-10-16T09:47:21;102136.78;;;21.34;73.69
57859;BME280;49153;45.568;11.894;2022-10-16T09:50:32;102132.50;;;21.41;73.84
57859;BME280;49153;45.568;11.894;2022-10-16T09:53:14;102123.44;;;21.52;73.89
57859;BME280;49153;45.568;11.894;2022-10-16T09:55:50;102131.91;;;21.67;74.19
57859;BME280;49153;45.568;11.894;2022-10-16T09:58:16;102120.25;;;21.76;74.22
57859;BME280;49153;45.568;11.894;2022-10-16T10:00:51;102123.28;;;21.90;74.13
57859;BME280;49153;45.568;11.894;2022-10-16T10:03:37;102111.84;;;21.98;72.62
57859;BME280;49153;45.568;11.894;2022-10-16T10:06:18;102117.16;;;22.08;72.44
57859;BME280;49153;45.568;11.894;2022-10-16T10:09:02;102112.56;;;22.18;72.05
57859;BME280;49153;45.568;11.894;2022-10-16T10:11:42;102108.75;;;22.20;71.20
57859;BME280;49153;45.568;11.894;2022-10-16T10:17:23;102114.06;;;22.30;71.75
57859;BME280;49153;45.568;11.894;2022-10-16T10:20:18;102109.84;;;22.45;71.86
57859;BME280;49153;45.568;11.894;2022-10-16T10:22:46;102110.84;;;22.62;71.65
57859;BME280;49153;45.568;11.894;2022-10-16T10:30:15;102098.78;;;22.66;70.99
57859;BME280;49153;45.568;11.894;2022-10-16T10:35:41;102108.09;;;22.89;70.26
57859;BME280;49153;45.568;11.894;2022-10-16T10:38:50;102110.16;;;22.95;70.16
57859;BME280;49153;45.568;11.894;2022-10-16T10:47:01;102098.34;;;22.88;69.18
57859;BME280;49153;45.568;11.894;2022-10-16T10:55:10;102103.34;;;22.83;69.16
57859;BME280;49153;45.568;11.894;2022-10-16T11:05:52;102099.00;;;22.90;69.91
57859;BME280;49153;45.568;11.894;2022-10-16T11:08:27;102094.00;;;22.95;69.71
57859;BME280;49153;45.568;11.894;2022-10-16T11:10:58;102093.69;;;22.98;69.69
57859;BME280;49153;45.568;11.894;2022-10-16T11:13:36;102094.22;;;23.02;69.36
57859;BME280;49153;45.568;11.894;2022-10-16T11:16:17;102095.41;;;22.99;69.72
57859;BME280;49153;45.568;11.894;2022-10-16T11:18:55;102106.16;;;22.99;69.32
57859;BME280;49153;45.568;11.894;2022-10-16T11:21:24;102099.22;;;22.97;69.30
57859;BME280;49153;45.568;11.894;2022-10-16T11:23:57;102093.75;;;23.06;69.30
57859;BME280;49153;45.568;11.894;2022-10-16T11:26:27;102083.97;;;23.05;68.88
57859;BME280;49153;45.568;11.894;2022-10-16T11:28:55;102096.44;;;23.06;68.57
57859;BME280;49153;45.568;11.894;2022-10-16T11:31:43;102099.84;;;23.08;69.12
57859;BME280;49153;45.568;11.894;2022-10-16T11:34:19;102099.09;;;23.24;69.69
57859;BME280;49153;45.568;11.894;2022-10-16T11:36:55;102102.69;;;23.33;69.02
57859;BME280;49153;45.568;11.894;2022-10-16T11:39:27;102093.31;;;23.37;68.85
57859;BME280;49153;45.568;11.894;2022-10-16T11:44:38;102089.19;;;23.25;67.65
57859;BME280;49153;45.568;11.894;2022-10-16T11:47:15;102089.47;;;23.22;68.58
57859;BME280;49153;45.568;11.894;2022-10-16T11:49:44;102087.97;;;23.19;68.01
57859;BME280;49153;45.568;11.894;2022-10-16T11:52:22;102099.94;;;23.25;67.14
57859;BME280;49153;45.568;11.894;2022-10-16T11:54:57;102092.16;;;23.22;68.12
57859;BME280;49153;45.568;11.894;2022-10-16T11:57:27;102102.50;;;23.26;67.86
57859;BME280;49153;45.568;11.894;2022-10-16T12:10:32;102098.78;;;23.27;66.71
57859;BME280;49153;45.568;11.894;2022-10-16T12:13:26;102097.84;;;23.36;66.89
57859;BME280;49153;45.568;11.894;2022-10-16T12:15:47;102085.59;;;23.42;66.90
57859;BME280;49153;45.568;11.894;2022-10-16T12:18:23;102088.84;;;23.53;66.12
57859;BME280;49153;45.568;11.894;2022-10-16T12:20:59;102088.00;;;23.53;65.53
57859;BME280;49153;45.568;11.894;2022-10-16T12:23:30;102094.78;;;23.57;65.56
57859;BME280;49153;45.568;11.894;2022-10-16T12:25:57;102088.84;;;23.53;65.32
57859;BME280;49153;45.568;11.894;2022-10-16T12:28:29;102092.63;;;23.43;65.50
57859;BME280;49153;45.568;11.894;2022-10-16T12:31:00;102094.66;;;23.41;65.73
57859;BME280;49153;45.568;11.894;2022-10-16T12:33:29;102099.44;;;23.47;66.22
57859;BME280;49153;45.568;11.894;2022-10-16T12:35:56;102104.00;;;23.46;65.78
57859;BME280;49153;45.568;11.894;2022-10-16T12:38:46;102101.06;;;23.40;65.74
57859;BME280;49153;45.568;11.894;2022-10-16T12:41:12;102097.63;;;23.30;65.16
57859;BME280;49153;45.568;11.894;2022-10-16T12:43:48;102096.06;;;23.27;65.75
57859;BME280;49153;45.568;11.894;2022-10-16T12:48:42;102087.84;;;23.29;66.00
57859;BME280;49153;45.568;11.894;2022-10-16T12:54:16;102096.66;;;23.39;66.96
57859;BME280;49153;45.568;11.894;2022-10-16T12:59:41;102098.03;;;23.43;66.12
57859;BME280;49153;45.568;11.894;2022-10-16T13:16:54;102094.25;;;23.53;65.29
57859;BME280;49153;45.568;11.894;2022-10-16T13:19:34;102096.44;;;23.50;64.31
57859;BME280;49153;45.568;11.894;2022-10-16T13:30:08;102106.59;;;23.38;64.59
57859;BME280;49153;45.568;11.894;2022-10-16T13:32:36;102107.72;;;23.53;65.55
57859;BME280;49153;45.568;11.894;2022-10-16T13:35:01;102103.97;;;23.72;65.55
57859;BME280;49153;45.568;11.894;2022-10-16T13:37:27;102100.25;;;23.73;64.59
57859;BME280;49153;45.568;11.894;2022-10-16T13:40:09;102096.09;;;23.87;64.31
57859;BME280;49153;45.568;11.894;2022-10-16T13:42:42;102107.59;;;23.97;63.80
57859;BME280;49153;45.568;11.894;2022-10-16T13:45:21;102108.78;;;23.94;62.99
57859;BME280;49153;45.568;11.894;2022-10-16T13:47:47;102114.19;;;24.03;62.82
57859;BME280;49153;45.568;11.894;2022-10-16T13:50:16;102107.38;;;23.90;62.84
57859;BME280;49153;45.568;11.894;2022-10-16T13:52:43;102105.38;;;23.92;62.74
57859;BME280;49153;45.568;11.894;2022-10-16T13:55:16;102110.13;;;23.98;63.56
57859;BME280;49153;45.568;11.894;2022-10-16T13:57:43;102112.00;;;24.06;63.09
57859;BME280;49153;45.568;11.894;2022-10-16T14:00:26;102111.00;;;24.07;62.87
57859;BME280;49153;45.568;11.894;2022-10-16T14:03:13;102112.53;;;24.10;62.26
57859;BME280;49153;45.568;11.894;2022-10-16T14:06:01;102119.97;;;24.16;63.24
57859;BME280;49153;45.568;11.894;2022-10-16T14:08:28;102122.31;;;24.11;62.61
57859;BME280;49153;45.568;11.894;2022-10-16T14:10:57;102124.81;;;24.12;62.68
57859;BME280;49153;45.568;11.894;2022-10-16T14:13:31;102115.56;;;24.15;62.09
57859;BME280;49153;45.568;11.894;2022-10-16T14:16:04;102119.81;;;24.17;62.60
57859;BME280;49153;45.568;11.894;2022-10-16T14:18:31;102116.13;;;24.18;62.89
57859;BME280;49153;45.568;11.894;2022-10-16T14:21:05;102125.75;;;24.21;62.32
57859;BME280;49153;45.568;11.894;2022-10-16T14:23:39;102120.66;;;24.18;62.67
57859;BME280;49153;45.568;11.894;2022-10-16T14:28:39;102118.31;;;24.23;63.41
57859;BME280;49153;45.568;11.894;2022-10-16T14:31:31;102125.09;;;24.27;62.61
57859;BME280;49153;45.568;11.894;2022-10-16T14:33:57;102131.50;;;24.26;62.77
57859;BME280;49153;45.568;11.894;2022-10-16T14:36:24;102120.00;;;24.24;62.98